createdAt,value
2023-02-02T00:01:20.123Z,65.44
2023-02-02T00:03:47.130Z,66.23
2023-02-02T00:06:14.093Z,66.08
2023-02-02T00:08:40.946Z,65.58
2023-02-02T00:11:08.183Z,66.27
2023-02-02T00:13:35.069Z,66.02
2023-02-02T00:16:20.592Z,66.16
2023-02-02T00:18:48.637Z,66.24
2023-02-02T00:21:15.518Z,65.25
2023-02-02T00:23:42.386Z,65.65
2023-02-02T00:26:09.657Z,65.82
2023-02-02T00:28:36.793Z,65.42
2023-02-02T00:31:03.660Z,65.86
2023-02-02T00:33:30.534Z,66.51
2023-02-02T00:35:58.016Z,66.84
2023-02-02T00:38:25.084Z,66.80
2023-02-02T00:40:52.659Z,67.26
2023-02-02T00:43:19.483Z,67.27
2023-02-02T00:45:47.207Z,67.05
2023-02-02T00:48:14.060Z,67.22
2023-02-02T00:50:41.007Z,67.44
2023-02-02T00:53:07.923Z,67.52
2023-02-02T00:55:34.780Z,66.82
2023-02-02T00:58:01.701Z,67.41
2023-02-02T01:00:28.784Z,67.43
2023-02-02T01:02:56.290Z,67.47
2023-02-02T01:05:26.568Z,67.31
2023-02-02T01:07:53.494Z,67.63
2023-02-02T01:10:20.438Z,68.15
2023-02-02T01:12:47.225Z,68.48
2023-02-02T01:15:14.127Z,68.91
2023-02-02T01:17:41.514Z,68.47
2023-02-02T01:20:08.965Z,69.08
2023-02-02T01:22:35.812Z,68.71
2023-02-02T01:25:05.110Z,68.62
2023-02-02T01:27:32.031Z,68.80
2023-02-02T01:29:59.165Z,69.35
2023-02-02T01:32:26.020Z,69.87
2023-02-02T01:34:52.843Z,69.74
2023-02-02T01:37:19.753Z,69.10
2023-02-02T01:39:46.625Z,69.84
2023-02-02T01:42:19.434Z,69.58
2023-02-02T01:44:58.568Z,69.88
2023-02-02T01:47:27.224Z,70.58
2023-02-02T01:49:55.395Z,70.24
2023-02-02T01:52:24.492Z,71.13
2023-02-02T01:55:00.873Z,71.70
2023-02-02T01:57:30.821Z,71.72
2023-02-02T01:59:59.186Z,71.77
2023-02-02T02:02:27.878Z,71.75
2023-02-02T02:04:55.594Z,72.09
2023-02-02T02:07:23.743Z,72.70
2023-02-02T02:09:50.544Z,72.18
2023-02-02T02:12:17.588Z,71.83
2023-02-02T02:15:04.611Z,71.34
2023-02-02T02:17:31.959Z,71.94
2023-02-02T02:20:56.463Z,71.89
2023-02-02T02:24:01.368Z,72.03
2023-02-02T02:26:46.875Z,72.58
2023-02-02T02:29:15.026Z,72.27
2023-02-02T02:31:51.311Z,72.31
2023-02-02T02:34:22.528Z,72.67
2023-02-02T02:36:51.782Z,73.43
2023-02-02T02:39:19.141Z,73.68
2023-02-02T02:41:49.276Z,73.29
2023-02-02T02:44:17.061Z,74.92
2023-02-02T02:46:46.859Z,74.50
2023-02-02T02:49:14.224Z,74.76
2023-02-02T02:51:41.040Z,73.39
2023-02-02T02:54:08.869Z,72.91
2023-02-02T02:56:55.550Z,72.73
2023-02-02T02:59:46.486Z,71.67
2023-02-02T03:02:17.111Z,70.79
2023-02-02T03:04:48.133Z,70.26
2023-02-02T03:07:26.854Z,70.43
2023-02-02T03:09:55.280Z,69.76
2023-02-02T03:12:22.123Z,69.86
2023-02-02T03:14:48.947Z,69.47
2023-02-02T03:17:15.760Z,69.45
2023-02-02T03:19:42.517Z,69.27
2023-02-02T03:22:09.351Z,67.94
2023-02-02T03:24:36.077Z,68.20
2023-02-02T03:27:03.014Z,67.79
2023-02-02T03:29:29.939Z,67.91
2023-02-02T03:31:56.989Z,67.92
2023-02-02T03:34:23.853Z,68.24
2023-02-02T03:36:50.644Z,67.70
2023-02-02T03:39:17.474Z,67.95
2023-02-02T03:41:44.261Z,67.64
2023-02-02T03:44:11.131Z,67.52
2023-02-02T03:46:38.001Z,67.76
2023-02-02T03:49:04.892Z,67.63
2023-02-02T03:51:31.761Z,65.94
2023-02-02T03:53:58.608Z,66.00
2023-02-02T03:56:25.406Z,66.02
2023-02-02T03:58:52.199Z,66.36
2023-02-02T04:01:26.483Z,67.49
2023-02-02T04:03:53.488Z,67.09
2023-02-02T04:06:20.779Z,67.19
2023-02-02T04:08:47.675Z,67.68
2023-02-02T04:11:14.528Z,68.03
2023-02-02T04:13:43.536Z,67.50
2023-02-02T04:16:10.779Z,67.02
2023-02-02T04:18:40.481Z,67.14
2023-02-02T04:21:07.812Z,66.91
2023-02-02T04:23:35.081Z,66.39
2023-02-02T04:26:02.032Z,66.48
2023-02-02T04:28:29.104Z,69.65
2023-02-02T04:30:56.642Z,68.29
2023-02-02T04:33:24.474Z,68.37
2023-02-02T04:35:51.570Z,68.25
2023-02-02T04:38:18.525Z,67.99
2023-02-02T04:40:46.319Z,67.17
2023-02-02T04:43:13.058Z,67.31
2023-02-02T04:45:39.952Z,67.69
2023-02-02T04:48:06.879Z,67.42
2023-02-02T04:50:33.718Z,66.87
2023-02-02T04:53:00.596Z,67.40
2023-02-02T04:55:30.670Z,67.52
2023-02-02T04:57:57.508Z,65.89
2023-02-02T05:00:24.946Z,65.63
2023-02-02T05:02:51.909Z,65.70
2023-02-02T05:05:20.538Z,66.13
2023-02-02T05:07:47.419Z,65.65
2023-02-02T05:10:14.315Z,66.91
2023-02-02T05:12:41.104Z,68.35
2023-02-02T05:15:08.143Z,68.46
2023-02-02T05:17:34.917Z,68.11
2023-02-02T05:20:01.738Z,68.39
2023-02-02T05:22:28.722Z,68.35
2023-02-02T05:24:55.497Z,67.72
2023-02-02T05:27:22.361Z,67.24
2023-02-02T05:29:49.275Z,67.39
2023-02-02T05:32:16.298Z,66.97
2023-02-02T05:34:43.064Z,67.58
2023-02-02T05:37:09.924Z,67.35
2023-02-02T05:39:36.686Z,65.43
2023-02-02T05:42:03.666Z,65.36
2023-02-02T05:44:30.698Z,67.03
2023-02-02T05:46:57.496Z,67.41
2023-02-02T05:49:24.481Z,67.87
2023-02-02T05:51:53.974Z,66.90
2023-02-02T05:54:20.937Z,68.60
2023-02-02T05:56:48.813Z,67.60
2023-02-02T05:59:15.658Z,67.39
2023-02-02T06:01:45.811Z,66.97
2023-02-02T06:04:13.083Z,67.37
2023-02-02T06:06:40.095Z,67.04
2023-02-02T06:09:07.353Z,67.29
2023-02-02T06:11:34.516Z,66.67
2023-02-02T06:14:01.637Z,66.66
2023-02-02T06:16:28.503Z,66.78
2023-02-02T06:18:55.522Z,67.92
2023-02-02T06:21:24.714Z,69.37
2023-02-02T06:23:52.182Z,68.84
2023-02-02T06:26:19.458Z,69.59
2023-02-02T06:28:50.568Z,69.61
2023-02-02T06:31:20.645Z,69.76
2023-02-02T06:33:54.102Z,70.15
2023-02-02T06:36:21.616Z,70.03
2023-02-02T06:38:49.500Z,70.06
2023-02-02T06:41:16.330Z,69.33
2023-02-02T06:43:43.610Z,69.74
2023-02-02T06:46:10.424Z,70.03
2023-02-02T06:48:37.359Z,69.68
2023-02-02T06:51:05.685Z,70.15
2023-02-02T06:53:33.065Z,70.87
2023-02-02T06:56:01.403Z,71.36
2023-02-02T06:58:28.363Z,70.64
2023-02-02T07:00:55.254Z,70.80
2023-02-02T07:03:22.532Z,71.91
2023-02-02T07:05:50.138Z,72.27
2023-02-02T07:08:17.235Z,73.12
2023-02-02T07:11:13.087Z,73.39
2023-02-02T07:13:31.796Z,72.95
2023-02-02T07:15:58.795Z,71.39
2023-02-02T07:18:25.791Z,72.03
2023-02-02T07:20:52.675Z,70.27
2023-02-02T07:23:19.553Z,70.60
2023-02-02T07:25:46.419Z,69.77
2023-02-02T07:28:13.264Z,70.60
2023-02-02T07:30:40.101Z,69.30
2023-02-02T07:33:06.946Z,68.24
2023-02-02T07:35:34.008Z,70.89
2023-02-02T07:38:00.798Z,73.73
2023-02-02T07:40:27.676Z,73.85
2023-02-02T07:42:54.565Z,73.72
2023-02-02T07:45:27.095Z,75.03
2023-02-02T07:47:58.177Z,74.95
2023-02-02T07:50:25.602Z,72.36
2023-02-02T07:52:52.867Z,73.79
2023-02-02T07:55:20.190Z,73.68
2023-02-02T07:57:47.105Z,74.52
2023-02-02T08:00:14.343Z,74.35
2023-02-02T08:02:41.321Z,75.27
2023-02-02T08:05:08.423Z,75.19
2023-02-02T08:07:35.309Z,75.65
2023-02-02T08:10:02.204Z,75.44
2023-02-02T08:12:29.120Z,73.02
2023-02-02T08:14:56.197Z,66.17
2023-02-02T08:17:23.677Z,65.37
2023-02-02T08:19:50.844Z,62.89
2023-02-02T08:22:20.218Z,64.79
2023-02-02T08:24:48.182Z,62.41
2023-02-02T08:27:16.461Z,64.28
2023-02-02T08:29:43.767Z,63.24
2023-02-02T08:32:10.844Z,61.74
2023-02-02T08:34:37.941Z,63.21
2023-02-02T08:37:04.865Z,58.90
2023-02-02T08:39:31.772Z,61.30
2023-02-02T08:41:58.543Z,59.63
2023-02-02T08:44:28.146Z,59.91
2023-02-02T08:47:11.960Z,59.34
2023-02-02T08:49:38.866Z,59.00
2023-02-02T08:52:05.823Z,57.36
2023-02-02T08:54:32.689Z,60.23
2023-02-02T08:56:59.547Z,55.24
2023-02-02T08:59:26.475Z,59.00
2023-02-02T09:01:53.387Z,56.13
2023-02-02T09:04:20.199Z,55.64
2023-02-02T09:06:47.123Z,57.57
2023-02-02T09:09:15.014Z,54.81
2023-02-02T09:11:42.431Z,53.06
2023-02-02T09:14:12.158Z,54.92
2023-02-02T09:16:39.287Z,59.14
2023-02-02T09:19:06.502Z,59.57
2023-02-02T09:21:37.291Z,58.65
2023-02-02T09:24:11.928Z,58.81
2023-02-02T09:26:40.633Z,58.19
2023-02-02T09:29:08.599Z,57.51
2023-02-02T09:31:36.717Z,57.42
2023-02-02T09:34:09.909Z,58.58
2023-02-02T09:36:37.393Z,55.27
2023-02-02T09:39:04.688Z,56.74
2023-02-02T09:41:56.004Z,53.12
2023-02-02T09:44:25.867Z,56.83
2023-02-02T09:47:11.342Z,60.74
2023-02-02T09:49:47.609Z,62.04
2023-02-02T09:52:18.501Z,56.91
2023-02-02T09:54:47.784Z,54.90
2023-02-02T09:57:21.256Z,56.26
2023-02-02T09:59:49.945Z,58.80
2023-02-02T10:02:24.867Z,57.35
2023-02-02T10:04:54.844Z,57.42
2023-02-02T10:07:26.827Z,53.73
2023-02-02T10:09:57.445Z,56.71
2023-02-02T10:12:24.348Z,54.73
2023-02-02T10:14:59.068Z,59.52
2023-02-02T10:17:34.923Z,58.46
2023-02-02T10:20:06.558Z,59.20
2023-02-02T10:22:34.554Z,60.83
2023-02-02T10:25:01.506Z,61.03
2023-02-02T10:27:37.403Z,60.78
2023-02-02T10:30:07.832Z,58.09
2023-02-02T10:32:38.969Z,55.28
2023-02-02T10:35:17.237Z,56.60
2023-02-02T10:37:44.123Z,55.81
2023-02-02T10:40:24.556Z,55.50
2023-02-02T10:43:28.879Z,56.71
2023-02-02T10:45:56.931Z,57.45
2023-02-02T10:48:30.431Z,59.86
2023-02-02T10:50:59.667Z,58.94
2023-02-02T10:53:28.913Z,56.57
2023-02-02T10:56:13.305Z,55.31
2023-02-02T10:58:57.985Z,51.74
2023-02-02T11:01:25.075Z,55.44
2023-02-02T11:04:11.928Z,55.76
2023-02-02T11:06:52.516Z,56.23
2023-02-02T11:09:24.157Z,54.49
2023-02-02T11:11:52.222Z,56.76
2023-02-02T11:14:30.465Z,54.91
2023-02-02T11:17:02.424Z,57.13
2023-02-02T11:19:30.571Z,58.51
2023-02-02T11:21:58.538Z,56.06
2023-02-02T11:24:29.818Z,57.47
2023-02-02T11:26:56.815Z,56.44
2023-02-02T11:29:37.482Z,54.42
2023-02-02T11:32:19.814Z,56.34
2023-02-02T11:34:47.498Z,57.34
2023-02-02T11:37:23.752Z,54.95
2023-02-02T11:39:53.044Z,57.85
2023-02-02T11:42:22.085Z,57.14
2023-02-02T11:44:53.695Z,56.13
2023-02-02T11:47:22.618Z,58.49
2023-02-02T11:49:52.127Z,53.73
2023-02-02T11:52:22.230Z,56.63
2023-02-02T11:54:50.651Z,54.31
2023-02-02T11:57:24.421Z,57.63
2023-02-02T11:59:52.210Z,56.10
2023-02-02T12:02:25.034Z,58.12
2023-02-02T12:04:56.453Z,59.46
2023-02-02T12:07:26.001Z,57.77
2023-02-02T12:09:53.250Z,57.97
2023-02-02T12:12:29.358Z,58.70
2023-02-02T12:15:11.527Z,56.73
2023-02-02T12:17:42.264Z,52.67
2023-02-02T12:20:28.422Z,54.89
2023-02-02T12:23:10.411Z,54.31
2023-02-02T12:25:48.889Z,53.09
2023-02-02T12:28:21.160Z,53.52
2023-02-02T12:30:51.070Z,54.15
2023-02-02T12:33:21.049Z,50.71
2023-02-02T12:36:06.873Z,51.78
2023-02-02T12:38:55.496Z,52.25
2023-02-02T12:41:22.433Z,54.65
2023-02-02T12:43:51.691Z,54.73
2023-02-02T12:46:33.552Z,54.79
2023-02-02T12:49:00.396Z,55.66
2023-02-02T12:52:06.104Z,53.87
2023-02-02T12:54:46.217Z,54.69
2023-02-02T12:57:18.430Z,55.42
2023-02-02T12:59:45.256Z,56.27
2023-02-02T13:02:18.028Z,55.13
2023-02-02T13:04:51.049Z,54.02
2023-02-02T13:07:35.563Z,54.04
2023-02-02T13:10:17.980Z,56.10
2023-02-02T13:12:48.271Z,58.06
2023-02-02T13:15:18.889Z,59.22
2023-02-02T13:17:51.847Z,59.55
2023-02-02T13:20:23.246Z,60.21
2023-02-02T13:22:53.184Z,58.19
2023-02-02T13:25:27.851Z,56.96
2023-02-02T13:27:55.590Z,57.64
2023-02-02T13:30:31.893Z,57.85
2023-02-02T13:33:00.413Z,53.50
2023-02-02T13:35:33.365Z,56.45
2023-02-02T13:38:12.679Z,53.89
2023-02-02T13:40:40.821Z,54.43
2023-02-02T13:43:16.935Z,51.13
2023-02-02T13:46:02.753Z,49.42
2023-02-02T13:48:29.738Z,50.81
2023-02-02T13:50:59.528Z,52.15
2023-02-02T13:53:52.020Z,52.16
2023-02-02T13:56:25.463Z,52.45
2023-02-02T13:58:58.202Z,53.37
2023-02-02T14:01:25.803Z,54.65
2023-02-02T14:03:54.358Z,56.62
2023-02-02T14:06:22.659Z,56.96
2023-02-02T14:08:52.982Z,56.91
2023-02-02T14:11:42.608Z,56.68
2023-02-02T14:14:32.367Z,57.35
2023-02-02T14:17:00.095Z,52.80
2023-02-02T14:19:36.014Z,55.15
2023-02-02T14:22:09.257Z,55.96
2023-02-02T14:24:36.044Z,55.10
2023-02-02T14:27:05.693Z,57.22
2023-02-02T14:29:32.822Z,58.27
2023-02-02T14:32:18.635Z,58.43
2023-02-02T14:34:45.669Z,59.25
2023-02-02T14:37:24.784Z,60.38
2023-02-02T14:39:54.376Z,57.88
2023-02-02T14:42:39.938Z,55.91
2023-02-02T14:45:15.947Z,58.19
2023-02-02T14:47:42.800Z,58.09
2023-02-02T14:50:14.555Z,60.14
2023-02-02T14:52:41.816Z,60.54
2023-02-02T14:55:19.194Z,62.47
2023-02-02T14:57:53.496Z,64.40
2023-02-02T15:00:25.035Z,61.50
2023-02-02T15:02:55.066Z,58.83
2023-02-02T15:05:34.302Z,58.85
2023-02-02T15:08:13.075Z,62.09
2023-02-02T15:10:55.039Z,60.30
2023-02-02T15:13:27.203Z,64.28
2023-02-02T15:16:04.378Z,63.13
2023-02-02T15:18:37.869Z,59.81
2023-02-02T15:21:06.487Z,59.69
2023-02-02T15:23:44.312Z,60.09
2023-02-02T15:26:24.584Z,61.38
2023-02-02T15:28:51.407Z,61.32
2023-02-02T15:31:38.769Z,61.27
2023-02-02T15:34:31.741Z,61.93
2023-02-02T15:37:00.244Z,61.57
2023-02-02T15:39:30.150Z,61.21
2023-02-02T15:42:17.213Z,61.90
2023-02-02T15:44:44.230Z,62.25
2023-02-02T15:47:24.788Z,61.48
2023-02-02T15:49:52.338Z,61.02
2023-02-02T15:52:27.493Z,61.23
2023-02-02T15:54:54.397Z,61.57
2023-02-02T15:57:25.160Z,62.28
2023-02-02T15:59:52.237Z,62.80
2023-02-02T16:02:28.419Z,62.20
2023-02-02T16:04:55.357Z,63.04
2023-02-02T16:07:28.035Z,63.20
2023-02-02T16:09:55.103Z,62.71
2023-02-02T16:12:23.622Z,63.28
2023-02-02T16:14:52.197Z,63.24
2023-02-02T16:17:22.151Z,63.79
2023-02-02T16:19:57.974Z,64.10
2023-02-02T16:22:25.735Z,63.63
2023-02-02T16:24:54.291Z,63.44
2023-02-02T16:27:23.872Z,62.78
2023-02-02T16:29:51.133Z,64.40
2023-02-02T16:32:31.602Z,62.34
2023-02-02T16:34:59.072Z,63.17
2023-02-02T16:37:32.504Z,64.99
2023-02-02T16:40:18.874Z,65.72
2023-02-02T16:42:45.747Z,64.77
2023-02-02T16:45:34.012Z,64.01
2023-02-02T16:48:33.453Z,63.57
2023-02-02T16:51:23.482Z,64.50
2023-02-02T16:54:13.922Z,64.83
2023-02-02T16:56:42.297Z,66.05
2023-02-02T16:59:18.143Z,64.64
2023-02-02T17:01:49.180Z,63.78
2023-02-02T17:04:24.088Z,64.56
2023-02-02T17:06:53.168Z,64.66
2023-02-02T17:09:27.644Z,62.89
2023-02-02T17:11:55.558Z,62.81
2023-02-02T17:14:33.102Z,62.60
2023-02-02T17:17:00.407Z,64.91
2023-02-02T17:19:30.468Z,68.52
2023-02-02T17:21:59.840Z,68.10
2023-02-02T17:24:27.149Z,70.48
2023-02-02T17:26:54.289Z,70.57
2023-02-02T17:29:21.854Z,69.62
2023-02-02T17:31:48.752Z,69.52
2023-02-02T17:34:15.770Z,67.83
2023-02-02T17:36:43.389Z,67.58
2023-02-02T17:39:11.668Z,67.22
2023-02-02T17:41:39.356Z,67.43
2023-02-02T17:44:06.987Z,66.55
2023-02-02T17:46:35.137Z,67.25
2023-02-02T17:49:02.211Z,68.42
2023-02-02T17:51:38.607Z,68.12
2023-02-02T17:54:09.172Z,69.70
2023-02-02T17:56:35.972Z,69.64
2023-02-02T17:59:02.815Z,70.01
2023-02-02T18:01:29.713Z,70.11
2023-02-02T18:03:56.567Z,70.52
2023-02-02T18:06:26.422Z,71.58
2023-02-02T18:08:53.451Z,72.78
2023-02-02T18:11:20.307Z,73.71
2023-02-02T18:13:47.210Z,73.85
2023-02-02T18:16:14.108Z,74.60
2023-02-02T18:18:41.034Z,74.91
2023-02-02T18:21:09.756Z,76.46
2023-02-02T18:23:37.558Z,75.87
2023-02-02T18:26:10.399Z,75.09
2023-02-02T18:28:38.308Z,76.11
2023-02-02T18:31:09.293Z,76.64
2023-02-02T18:33:37.257Z,76.75
2023-02-02T18:36:12.099Z,76.64
2023-02-02T18:38:39.592Z,77.50
2023-02-02T18:41:06.461Z,77.93
2023-02-02T18:43:33.508Z,78.27
2023-02-02T18:46:01.690Z,76.55
2023-02-02T18:48:29.564Z,78.36
2023-02-02T18:50:56.479Z,77.05
2023-02-02T18:53:23.489Z,78.20
2023-02-02T18:55:50.316Z,75.64
2023-02-02T18:58:17.232Z,76.42
2023-02-02T19:00:50.395Z,76.79
2023-02-02T19:03:17.553Z,74.80
2023-02-02T19:06:03.059Z,75.31
2023-02-02T19:08:30.394Z,75.62
2023-02-02T19:11:00.640Z,76.39
2023-02-02T19:13:28.930Z,76.55
2023-02-02T19:15:55.936Z,76.00
2023-02-02T19:18:23.770Z,74.63
2023-02-02T19:20:51.742Z,74.79
2023-02-02T19:23:23.447Z,73.28
2023-02-02T19:25:51.892Z,73.98
2023-02-02T19:28:27.345Z,74.18
2023-02-02T19:30:55.422Z,73.76
2023-02-02T19:33:34.131Z,74.70
2023-02-02T19:36:01.069Z,75.04
2023-02-02T19:38:29.605Z,73.62
2023-02-02T19:40:56.508Z,73.60
2023-02-02T19:43:30.156Z,74.30
2023-02-02T19:45:59.321Z,73.37
2023-02-02T19:48:27.600Z,73.51
2023-02-02T19:50:55.929Z,73.36
2023-02-02T19:53:24.465Z,73.75
2023-02-02T19:55:52.053Z,71.89
2023-02-02T19:58:23.569Z,71.15
2023-02-02T20:00:51.314Z,73.73
2023-02-02T20:03:18.270Z,75.10
2023-02-02T20:05:49.551Z,71.24
2023-02-02T20:08:25.716Z,69.56
2023-02-02T20:10:58.328Z,71.21
2023-02-02T20:13:34.234Z,72.51
2023-02-02T20:16:04.316Z,73.12
2023-02-02T20:18:42.775Z,73.28
2023-02-02T20:21:17.504Z,71.75
2023-02-02T20:23:45.297Z,72.64
2023-02-02T20:26:34.416Z,69.20
2023-02-02T20:29:13.032Z,69.21
2023-02-02T20:31:40.083Z,68.76
2023-02-02T20:34:25.359Z,66.92
2023-02-02T20:36:53.363Z,67.67
2023-02-02T20:39:28.063Z,68.97
2023-02-02T20:41:56.657Z,66.50
2023-02-02T20:44:25.742Z,66.19
2023-02-02T20:46:52.862Z,65.02
2023-02-02T20:49:22.462Z,64.43
2023-02-02T20:51:49.464Z,66.19
2023-02-02T20:54:16.301Z,65.99
2023-02-02T20:56:43.285Z,65.29
2023-02-02T20:59:10.102Z,65.18
2023-02-02T21:01:37.055Z,66.01
2023-02-02T21:04:07.224Z,65.89
2023-02-02T21:06:34.678Z,65.36
2023-02-02T21:09:05.604Z,61.57
2023-02-02T21:11:33.146Z,60.87
2023-02-02T21:14:00.490Z,61.81
2023-02-02T21:16:27.712Z,61.48
2023-02-02T21:18:55.062Z,62.42
2023-02-02T21:21:22.896Z,62.14
2023-02-02T21:23:51.613Z,62.84
2023-02-02T21:26:20.799Z,62.47
2023-02-02T21:28:48.361Z,62.41
2023-02-02T21:31:16.424Z,61.88
2023-02-02T21:33:44.212Z,60.54
2023-02-02T21:36:29.676Z,61.02
2023-02-02T21:39:02.059Z,59.23
2023-02-02T21:41:30.438Z,60.21
2023-02-02T21:43:58.610Z,60.12
2023-02-02T21:46:29.702Z,60.30
2023-02-02T21:48:56.619Z,61.71
2023-02-02T21:51:34.252Z,60.48
2023-02-02T21:54:13.381Z,61.68
2023-02-02T21:56:40.720Z,63.16
2023-02-02T21:59:11.915Z,63.58
2023-02-02T22:01:42.458Z,62.62
2023-02-02T22:04:18.554Z,62.98
2023-02-02T22:06:46.841Z,62.90
2023-02-02T22:09:13.666Z,61.99
2023-02-02T22:12:00.885Z,61.94
2023-02-02T22:14:40.783Z,63.21
2023-02-02T22:17:17.433Z,63.37
2023-02-02T22:19:44.475Z,63.59
2023-02-02T22:22:22.156Z,62.81
2023-02-02T22:25:07.672Z,62.50
2023-02-02T22:27:54.869Z,63.55
2023-02-02T22:30:41.000Z,62.93
2023-02-02T22:33:09.571Z,63.84
2023-02-02T22:35:36.837Z,64.61
2023-02-02T22:38:04.040Z,64.35
2023-02-02T22:40:34.308Z,63.51
2023-02-02T22:43:05.901Z,63.72
2023-02-02T22:45:32.955Z,64.12
2023-02-02T22:48:00.139Z,62.82
2023-02-02T22:50:28.609Z,63.95
2023-02-02T22:52:55.877Z,63.06
2023-02-02T22:55:22.810Z,63.79
2023-02-02T22:57:49.930Z,62.61
2023-02-02T23:00:18.910Z,62.69
2023-02-02T23:02:45.775Z,63.56
2023-02-02T23:05:13.705Z,63.25
2023-02-02T23:07:44.112Z,64.27
2023-02-02T23:10:12.501Z,62.87
2023-02-02T23:12:40.106Z,62.50
2023-02-02T23:15:07.504Z,63.17
2023-02-02T23:17:35.507Z,63.28
2023-02-02T23:20:05.886Z,63.42
2023-02-02T23:22:32.840Z,63.21
2023-02-02T23:25:01.629Z,62.72
2023-02-02T23:27:28.450Z,63.28
2023-02-02T23:29:55.348Z,64.15
2023-02-02T23:32:22.153Z,64.94
2023-02-02T23:34:49.223Z,64.70
2023-02-02T23:37:16.146Z,64.88
2023-02-02T23:39:43.150Z,64.69
2023-02-02T23:42:09.937Z,63.95
2023-02-02T23:44:36.807Z,64.27
2023-02-02T23:47:04.253Z,62.29
2023-02-02T23:49:31.831Z,64.38
2023-02-02T23:51:58.912Z,64.29
2023-02-02T23:54:26.148Z,62.75
2023-02-02T23:56:53.069Z,64.03
2023-02-02T23:59:19.952Z,64.37
